sensor_id;sensor_type;location;lat;lon;timestamp;P1;durP1;ratioP1;P2;durP2;ratioP2
48205;SDS011;33995;48.202;16.260;2024-01-30T00:01:26;18.47;;;14.93;;
48205;SDS011;33995;48.202;16.260;2024-01-30T00:03:56;18.33;;;15.07;;
48205;SDS011;33995;48.202;16.260;2024-01-30T00:06:28;20.00;;;15.23;;
48205;SDS011;33995;48.202;16.260;2024-01-30T00:08:55;21.07;;;15.30;;
48205;SDS011;33995;48.202;16.260;2024-01-30T00:11:22;18.10;;;15.67;;
48205;SDS011;33995;48.202;16.260;2024-01-30T00:13:52;19.20;;;15.10;;
48205;SDS011;33995;48.202;16.260;2024-01-30T00:16:22;19.27;;;14.77;;
48205;SDS011;33995;48.202;16.260;2024-01-30T00:18:51;19.57;;;15.30;;
48205;SDS011;33995;48.202;16.260;2024-01-30T00:21:21;19.77;;;15.00;;
48205;SDS011;33995;48.202;16.260;2024-01-30T00:23:51;19.87;;;15.60;;
48205;SDS011;33995;48.202;16.260;2024-01-30T00:26:18;19.10;;;15.17;;
48205;SDS011;33995;48.202;16.260;2024-01-30T00:28:47;20.10;;;15.67;;
48205;SDS011;33995;48.202;16.260;2024-01-30T00:31:16;19.67;;;16.07;;
48205;SDS011;33995;48.202;16.260;2024-01-30T00:33:45;18.97;;;14.97;;
48205;SDS011;33995;48.202;16.260;2024-01-30T00:36:15;19.07;;;15.63;;
48205;SDS011;33995;48.202;16.260;2024-01-30T00:38:45;21.07;;;15.73;;
48205;SDS011;33995;48.202;16.260;2024-01-30T00:41:12;19.40;;;15.20;;
48205;SDS011;33995;48.202;16.260;2024-01-30T00:43:40;18.30;;;14.87;;
48205;SDS011;33995;48.202;16.260;2024-01-30T00:46:08;20.40;;;15.00;;
48205;SDS011;33995;48.202;16.260;2024-01-30T00:48:36;18.37;;;14.93;;
48205;SDS011;33995;48.202;16.260;2024-01-30T00:51:03;18.90;;;14.87;;
48205;SDS011;33995;48.202;16.260;2024-01-30T00:53:34;17.33;;;15.30;;
48205;SDS011;33995;48.202;16.260;2024-01-30T00:56:01;20.03;;;15.17;;
48205;SDS011;33995;48.202;16.260;2024-01-30T00:58:29;18.30;;;15.80;;
48205;SDS011;33995;48.202;16.260;2024-01-30T01:00:56;18.37;;;14.90;;
48205;SDS011;33995;48.202;16.260;2024-01-30T01:03:24;20.37;;;15.50;;
48205;SDS011;33995;48.202;16.260;2024-01-30T01:05:51;20.13;;;15.57;;
48205;SDS011;33995;48.202;16.260;2024-01-30T01:08:18;19.80;;;15.07;;
48205;SDS011;33995;48.202;16.260;2024-01-30T01:10:45;21.70;;;15.30;;
48205;SDS011;33995;48.202;16.260;2024-01-30T01:13:16;18.20;;;14.57;;
48205;SDS011;33995;48.202;16.260;2024-01-30T01:15:46;19.13;;;15.20;;
48205;SDS011;33995;48.202;16.260;2024-01-30T01:18:13;20.77;;;15.13;;
48205;SDS011;33995;48.202;16.260;2024-01-30T01:20:43;19.27;;;15.37;;
48205;SDS011;33995;48.202;16.260;2024-01-30T01:23:13;20.60;;;15.87;;
48205;SDS011;33995;48.202;16.260;2024-01-30T01:25:40;21.80;;;16.20;;
48205;SDS011;33995;48.202;16.260;2024-01-30T01:28:10;20.97;;;14.80;;
48205;SDS011;33995;48.202;16.260;2024-01-30T01:30:38;19.23;;;16.23;;
48205;SDS011;33995;48.202;16.260;2024-01-30T01:33:05;21.13;;;15.63;;
48205;SDS011;33995;48.202;16.260;2024-01-30T01:35:33;18.97;;;15.47;;
48205;SDS011;33995;48.202;16.260;2024-01-30T01:38:00;21.03;;;15.83;;
48205;SDS011;33995;48.202;16.260;2024-01-30T01:40:30;21.07;;;16.20;;
48205;SDS011;33995;48.202;16.260;2024-01-30T01:42:57;20.60;;;15.67;;
48205;SDS011;33995;48.202;16.260;2024-01-30T01:45:24;19.10;;;15.00;;
48205;SDS011;33995;48.202;16.260;2024-01-30T01:47:55;19.33;;;15.30;;
48205;SDS011;33995;48.202;16.260;2024-01-30T01:50:25;19.17;;;15.20;;
48205;SDS011;33995;48.202;16.260;2024-01-30T01:52:55;19.43;;;16.00;;
48205;SDS011;33995;48.202;16.260;2024-01-30T01:55:25;18.77;;;15.27;;
48205;SDS011;33995;48.202;16.260;2024-01-30T01:57:54;18.90;;;15.57;;
48205;SDS011;33995;48.202;16.260;2024-01-30T02:00:22;20.83;;;16.27;;
48205;SDS011;33995;48.202;16.260;2024-01-30T02:02:50;19.73;;;15.47;;
48205;SDS011;33995;48.202;16.260;2024-01-30T02:05:21;20.10;;;15.83;;
48205;SDS011;33995;48.202;16.260;2024-01-30T02:07:56;21.80;;;15.90;;
48205;SDS011;33995;48.202;16.260;2024-01-30T02:10:23;18.90;;;16.33;;
48205;SDS011;33995;48.202;16.260;2024-01-30T02:12:50;20.07;;;15.60;;
48205;SDS011;33995;48.202;16.260;2024-01-30T02:15:20;20.53;;;16.00;;
48205;SDS011;33995;48.202;16.260;2024-01-30T02:17:47;19.20;;;15.93;;
48205;SDS011;33995;48.202;16.260;2024-01-30T02:20:14;18.73;;;15.20;;
48205;SDS011;33995;48.202;16.260;2024-01-30T02:22:41;17.47;;;14.90;;
48205;SDS011;33995;48.202;16.260;2024-01-30T02:25:09;20.60;;;15.77;;
48205;SDS011;33995;48.202;16.260;2024-01-30T02:27:37;19.63;;;15.23;;
48205;SDS011;33995;48.202;16.260;2024-01-30T02:30:04;17.60;;;14.60;;
48205;SDS011;33995;48.202;16.260;2024-01-30T02:32:33;20.30;;;15.70;;
48205;SDS011;33995;48.202;16.260;2024-01-30T02:35:00;20.07;;;15.87;;
48205;SDS011;33995;48.202;16.260;2024-01-30T02:37:27;19.50;;;15.60;;
48205;SDS011;33995;48.202;16.260;2024-01-30T02:39:54;20.23;;;15.77;;
48205;SDS011;33995;48.202;16.260;2024-01-30T02:42:22;21.07;;;16.10;;
48205;SDS011;33995;48.202;16.260;2024-01-30T02:44:48;19.03;;;15.00;;
48205;SDS011;33995;48.202;16.260;2024-01-30T02:47:15;20.30;;;15.17;;
48205;SDS011;33995;48.202;16.260;2024-01-30T02:49:42;21.10;;;16.27;;
48205;SDS011;33995;48.202;16.260;2024-01-30T02:52:10;21.20;;;15.87;;
48205;SDS011;33995;48.202;16.260;2024-01-30T02:54:41;21.23;;;16.03;;
48205;SDS011;33995;48.202;16.260;2024-01-30T02:57:08;20.00;;;15.87;;
48205;SDS011;33995;48.202;16.260;2024-01-30T02:59:35;20.57;;;15.67;;
48205;SDS011;33995;48.202;16.260;2024-01-30T03:02:05;21.57;;;15.87;;
48205;SDS011;33995;48.202;16.260;2024-01-30T03:04:35;20.30;;;15.70;;
48205;SDS011;33995;48.202;16.260;2024-01-30T03:07:06;17.90;;;14.87;;
48205;SDS011;33995;48.202;16.260;2024-01-30T03:09:34;19.17;;;15.33;;
48205;SDS011;33995;48.202;16.260;2024-01-30T03:12:04;21.80;;;15.70;;
48205;SDS011;33995;48.202;16.260;2024-01-30T03:14:37;19.23;;;15.63;;
48205;SDS011;33995;48.202;16.260;2024-01-30T03:17:04;20.20;;;15.93;;
48205;SDS011;33995;48.202;16.260;2024-01-30T03:19:32;22.03;;;15.90;;
48205;SDS011;33995;48.202;16.260;2024-01-30T03:21:59;17.37;;;15.43;;
48205;SDS011;33995;48.202;16.260;2024-01-30T03:24:27;19.90;;;15.97;;
48205;SDS011;33995;48.202;16.260;2024-01-30T03:26:55;21.00;;;15.97;;
48205;SDS011;33995;48.202;16.260;2024-01-30T03:29:22;21.80;;;16.13;;
48205;SDS011;33995;48.202;16.260;2024-01-30T03:31:49;18.37;;;14.33;;
48205;SDS011;33995;48.202;16.260;2024-01-30T03:34:18;18.20;;;15.20;;
48205;SDS011;33995;48.202;16.260;2024-01-30T03:36:49;18.90;;;15.77;;
48205;SDS011;33995;48.202;16.260;2024-01-30T03:39:16;19.67;;;15.63;;
48205;SDS011;33995;48.202;16.260;2024-01-30T03:41:43;19.17;;;15.80;;
48205;SDS011;33995;48.202;16.260;2024-01-30T03:44:11;21.00;;;15.60;;
48205;SDS011;33995;48.202;16.260;2024-01-30T03:46:41;19.40;;;15.67;;
48205;SDS011;33995;48.202;16.260;2024-01-30T03:49:07;21.20;;;16.30;;
48205;SDS011;33995;48.202;16.260;2024-01-30T03:51:36;19.10;;;15.53;;
48205;SDS011;33995;48.202;16.260;2024-01-30T03:54:02;20.90;;;16.23;;
48205;SDS011;33995;48.202;16.260;2024-01-30T03:56:29;20.93;;;16.20;;
48205;SDS011;33995;48.202;16.260;2024-01-30T03:58:56;19.77;;;15.87;;
48205;SDS011;33995;48.202;16.260;2024-01-30T04:01:27;20.33;;;15.50;;
48205;SDS011;33995;48.202;16.260;2024-01-30T04:03:57;22.47;;;15.27;;
48205;SDS011;33995;48.202;16.260;2024-01-30T04:06:25;20.43;;;15.80;;
48205;SDS011;33995;48.202;16.260;2024-01-30T04:08:55;21.53;;;15.97;;
48205;SDS011;33995;48.202;16.260;2024-01-30T04:11:25;19.93;;;16.13;;
48205;SDS011;33995;48.202;16.260;2024-01-30T04:13:55;20.90;;;17.00;;
48205;SDS011;33995;48.202;16.260;2024-01-30T04:16:23;19.90;;;16.27;;
48205;SDS011;33995;48.202;16.260;2024-01-30T04:18:51;19.73;;;16.00;;
48205;SDS011;33995;48.202;16.260;2024-01-30T04:21:20;23.50;;;16.57;;
48205;SDS011;33995;48.202;16.260;2024-01-30T04:23:48;19.53;;;15.77;;
48205;SDS011;33995;48.202;16.260;2024-01-30T04:26:19;21.00;;;16.10;;
48205;SDS011;33995;48.202;16.260;2024-01-30T04:28:50;19.43;;;15.37;;
48205;SDS011;33995;48.202;16.260;2024-01-30T04:31:17;21.20;;;16.07;;
48205;SDS011;33995;48.202;16.260;2024-01-30T04:33:46;21.27;;;15.90;;
48205;SDS011;33995;48.202;16.260;2024-01-30T04:36:13;21.40;;;16.13;;
48205;SDS011;33995;48.202;16.260;2024-01-30T04:38:43;20.97;;;16.27;;
48205;SDS011;33995;48.202;16.260;2024-01-30T04:41:10;25.47;;;17.00;;
48205;SDS011;33995;48.202;16.260;2024-01-30T04:43:37;21.43;;;16.37;;
48205;SDS011;33995;48.202;16.260;2024-01-30T04:46:04;22.13;;;16.63;;
48205;SDS011;33995;48.202;16.260;2024-01-30T04:48:39;21.17;;;17.07;;
48205;SDS011;33995;48.202;16.260;2024-01-30T04:51:06;20.63;;;16.10;;
48205;SDS011;33995;48.202;16.260;2024-01-30T04:53:36;19.97;;;16.37;;
48205;SDS011;33995;48.202;16.260;2024-01-30T04:56:04;21.80;;;17.20;;
48205;SDS011;33995;48.202;16.260;2024-01-30T04:58:31;25.50;;;17.87;;
48205;SDS011;33995;48.202;16.260;2024-01-30T05:00:58;19.73;;;16.70;;
48205;SDS011;33995;48.202;16.260;2024-01-30T05:03:25;23.80;;;17.60;;
48205;SDS011;33995;48.202;16.260;2024-01-30T05:05:52;21.00;;;17.13;;
48205;SDS011;33995;48.202;16.260;2024-01-30T05:08:19;22.27;;;17.10;;
48205;SDS011;33995;48.202;16.260;2024-01-30T05:10:54;19.27;;;16.50;;
48205;SDS011;33995;48.202;16.260;2024-01-30T05:13:21;22.90;;;17.50;;
48205;SDS011;33995;48.202;16.260;2024-01-30T05:15:48;22.63;;;17.30;;
48205;SDS011;33995;48.202;16.260;2024-01-30T05:18:15;23.50;;;17.73;;
48205;SDS011;33995;48.202;16.260;2024-01-30T05:20:45;21.50;;;16.90;;
48205;SDS011;33995;48.202;16.260;2024-01-30T05:23:12;24.33;;;17.83;;
48205;SDS011;33995;48.202;16.260;2024-01-30T05:25:43;22.60;;;17.33;;
48205;SDS011;33995;48.202;16.260;2024-01-30T05:28:15;20.97;;;17.90;;
48205;SDS011;33995;48.202;16.260;2024-01-30T05:30:43;22.50;;;17.90;;
48205;SDS011;33995;48.202;16.260;2024-01-30T05:33:10;21.70;;;18.10;;
48205;SDS011;33995;48.202;16.260;2024-01-30T05:35:39;23.90;;;18.70;;
48205;SDS011;33995;48.202;16.260;2024-01-30T05:38:09;22.97;;;17.80;;
48205;SDS011;33995;48.202;16.260;2024-01-30T05:40:38;22.63;;;18.07;;
48205;SDS011;33995;48.202;16.260;2024-01-30T05:43:05;22.07;;;17.60;;
48205;SDS011;33995;48.202;16.260;2024-01-30T05:45:37;22.23;;;18.10;;
48205;SDS011;33995;48.202;16.260;2024-01-30T05:48:07;27.30;;;18.50;;
48205;SDS011;33995;48.202;16.260;2024-01-30T05:50:37;22.47;;;17.77;;
48205;SDS011;33995;48.202;16.260;2024-01-30T05:53:07;21.33;;;17.80;;
48205;SDS011;33995;48.202;16.260;2024-01-30T05:55:34;23.67;;;18.13;;
48205;SDS011;33995;48.202;16.260;2024-01-30T05:58:01;22.00;;;17.30;;
48205;SDS011;33995;48.202;16.260;2024-01-30T06:00:28;24.67;;;18.10;;
48205;SDS011;33995;48.202;16.260;2024-01-30T06:02:55;22.07;;;17.90;;
48205;SDS011;33995;48.202;16.260;2024-01-30T06:05:25;21.43;;;17.67;;
48205;SDS011;33995;48.202;16.260;2024-01-30T06:07:55;23.23;;;18.07;;
48205;SDS011;33995;48.202;16.260;2024-01-30T06:10:22;23.17;;;18.13;;
48205;SDS011;33995;48.202;16.260;2024-01-30T06:12:53;22.33;;;17.37;;
48205;SDS011;33995;48.202;16.260;2024-01-30T06:15:20;25.90;;;18.23;;
48205;SDS011;33995;48.202;16.260;2024-01-30T06:17:47;23.87;;;18.20;;
48205;SDS011;33995;48.202;16.260;2024-01-30T06:20:15;23.90;;;18.70;;
48205;SDS011;33995;48.202;16.260;2024-01-30T06:22:45;23.63;;;19.17;;
48205;SDS011;33995;48.202;16.260;2024-01-30T06:25:11;26.97;;;19.87;;
48205;SDS011;33995;48.202;16.260;2024-01-30T06:27:43;24.70;;;18.50;;
48205;SDS011;33995;48.202;16.260;2024-01-30T06:30:11;22.13;;;17.80;;
48205;SDS011;33995;48.202;16.260;2024-01-30T06:32:41;24.70;;;19.13;;
48205;SDS011;33995;48.202;16.260;2024-01-30T06:35:11;25.30;;;20.03;;
48205;SDS011;33995;48.202;16.260;2024-01-30T06:37:39;25.20;;;19.50;;
48205;SDS011;33995;48.202;16.260;2024-01-30T06:40:06;25.43;;;19.60;;
48205;SDS011;33995;48.202;16.260;2024-01-30T06:42:33;24.90;;;18.00;;
48205;SDS011;33995;48.202;16.260;2024-01-30T06:45:01;23.87;;;18.77;;
48205;SDS011;33995;48.202;16.260;2024-01-30T06:47:31;24.40;;;18.77;;
48205;SDS011;33995;48.202;16.260;2024-01-30T06:49:58;23.33;;;18.90;;
48205;SDS011;33995;48.202;16.260;2024-01-30T06:52:26;28.77;;;19.40;;
48205;SDS011;33995;48.202;16.260;2024-01-30T06:54:55;25.10;;;19.67;;
48205;SDS011;33995;48.202;16.260;2024-01-30T06:57:23;25.07;;;19.43;;
48205;SDS011;33995;48.202;16.260;2024-01-30T06:59:50;23.50;;;18.87;;
48205;SDS011;33995;48.202;16.260;2024-01-30T07:02:20;22.47;;;18.17;;
48205;SDS011;33995;48.202;16.260;2024-01-30T07:04:47;21.20;;;17.53;;
48205;SDS011;33995;48.202;16.260;2024-01-30T07:07:14;24.33;;;19.10;;
48205;SDS011;33995;48.202;16.260;2024-01-30T07:09:45;27.57;;;19.90;;
48205;SDS011;33995;48.202;16.260;2024-01-30T07:12:14;26.37;;;19.97;;
48205;SDS011;33995;48.202;16.260;2024-01-30T07:14:41;25.17;;;20.23;;
48205;SDS011;33995;48.202;16.260;2024-01-30T07:17:08;23.70;;;19.90;;
48205;SDS011;33995;48.202;16.260;2024-01-30T07:19:35;26.60;;;19.73;;
48205;SDS011;33995;48.202;16.260;2024-01-30T07:22:03;26.70;;;20.00;;
48205;SDS011;33995;48.202;16.260;2024-01-30T07:24:31;25.57;;;19.87;;
48205;SDS011;33995;48.202;16.260;2024-01-30T07:27:02;25.80;;;19.67;;
48205;SDS011;33995;48.202;16.260;2024-01-30T07:29:29;24.67;;;19.90;;
48205;SDS011;33995;48.202;16.260;2024-01-30T07:31:56;25.63;;;20.23;;
48205;SDS011;33995;48.202;16.260;2024-01-30T07:34:23;24.40;;;19.30;;
48205;SDS011;33995;48.202;16.260;2024-01-30T07:36:51;26.40;;;19.63;;
48205;SDS011;33995;48.202;16.260;2024-01-30T07:39:21;25.03;;;19.23;;
48205;SDS011;33995;48.202;16.260;2024-01-30T07:41:51;25.60;;;19.90;;
48205;SDS011;33995;48.202;16.260;2024-01-30T07:44:18;25.93;;;20.70;;
48205;SDS011;33995;48.202;16.260;2024-01-30T07:46:45;26.67;;;19.90;;
48205;SDS011;33995;48.202;16.260;2024-01-30T07:49:12;25.97;;;19.90;;
48205;SDS011;33995;48.202;16.260;2024-01-30T07:51:41;25.07;;;19.37;;
48205;SDS011;33995;48.202;16.260;2024-01-30T07:54:12;24.33;;;19.30;;
48205;SDS011;33995;48.202;16.260;2024-01-30T07:56:45;24.73;;;19.63;;
48205;SDS011;33995;48.202;16.260;2024-01-30T07:59:22;23.07;;;18.93;;
48205;SDS011;33995;48.202;16.260;2024-01-30T08:01:51;24.17;;;18.53;;
48205;SDS011;33995;48.202;16.260;2024-01-30T08:04:18;24.90;;;18.80;;
48205;SDS011;33995;48.202;16.260;2024-01-30T08:06:45;23.20;;;17.50;;
48205;SDS011;33995;48.202;16.260;2024-01-30T08:09:13;23.63;;;18.50;;
48205;SDS011;33995;48.202;16.260;2024-01-30T08:11:43;22.63;;;17.73;;
48205;SDS011;33995;48.202;16.260;2024-01-30T08:14:20;22.70;;;17.47;;
48205;SDS011;33995;48.202;16.260;2024-01-30T08:16:49;22.77;;;17.73;;
48205;SDS011;33995;48.202;16.260;2024-01-30T08:19:16;22.10;;;17.30;;
48205;SDS011;33995;48.202;16.260;2024-01-30T08:21:44;22.67;;;17.37;;
48205;SDS011;33995;48.202;16.260;2024-01-30T08:24:11;20.97;;;16.30;;
48205;SDS011;33995;48.202;16.260;2024-01-30T08:26:38;20.17;;;16.60;;
48205;SDS011;33995;48.202;16.260;2024-01-30T08:29:05;21.20;;;17.70;;
48205;SDS011;33995;48.202;16.260;2024-01-30T08:31:32;24.30;;;18.00;;
48205;SDS011;33995;48.202;16.260;2024-01-30T08:33:59;20.77;;;17.20;;
48205;SDS011;33995;48.202;16.260;2024-01-30T08:36:27;21.27;;;17.47;;
48205;SDS011;33995;48.202;16.260;2024-01-30T08:38:54;20.03;;;16.90;;
48205;SDS011;33995;48.202;16.260;2024-01-30T08:41:27;20.80;;;16.60;;
48205;SDS011;33995;48.202;16.260;2024-01-30T08:43:54;22.30;;;17.03;;
48205;SDS011;33995;48.202;16.260;2024-01-30T08:46:21;20.97;;;16.90;;
48205;SDS011;33995;48.202;16.260;2024-01-30T08:48:48;19.87;;;16.77;;
48205;SDS011;33995;48.202;16.260;2024-01-30T08:51:18;20.03;;;16.80;;
48205;SDS011;33995;48.202;16.260;2024-01-30T08:53:45;20.23;;;15.97;;
48205;SDS011;33995;48.202;16.260;2024-01-30T08:56:12;18.87;;;16.37;;
48205;SDS011;33995;48.202;16.260;2024-01-30T08:58:40;18.67;;;15.43;;
48205;SDS011;33995;48.202;16.260;2024-01-30T09:01:08;18.87;;;15.83;;
48205;SDS011;33995;48.202;16.260;2024-01-30T09:03:41;17.57;;;15.70;;
48205;SDS011;33995;48.202;16.260;2024-01-30T09:06:10;18.67;;;16.10;;
48205;SDS011;33995;48.202;16.260;2024-01-30T09:08:38;18.37;;;15.83;;
48205;SDS011;33995;48.202;16.260;2024-01-30T09:11:17;21.43;;;16.73;;
48205;SDS011;33995;48.202;16.260;2024-01-30T09:13:45;19.60;;;15.80;;
48205;SDS011;33995;48.202;16.260;2024-01-30T09:16:15;20.07;;;16.67;;
48205;SDS011;33995;48.202;16.260;2024-01-30T09:18:43;19.00;;;16.53;;
48205;SDS011;33995;48.202;16.260;2024-01-30T09:21:10;19.80;;;16.77;;
48205;SDS011;33995;48.202;16.260;2024-01-30T09:23:37;21.00;;;16.13;;
48205;SDS011;33995;48.202;16.260;2024-01-30T09:26:04;19.30;;;16.20;;
48205;SDS011;33995;48.202;16.260;2024-01-30T09:28:31;20.70;;;16.43;;
48205;SDS011;33995;48.202;16.260;2024-01-30T09:31:00;19.40;;;16.87;;
48205;SDS011;33995;48.202;16.260;2024-01-30T09:33:27;19.37;;;16.70;;
48205;SDS011;33995;48.202;16.260;2024-01-30T09:35:54;20.83;;;16.33;;
48205;SDS011;33995;48.202;16.260;2024-01-30T09:38:23;19.77;;;15.90;;
48205;SDS011;33995;48.202;16.260;2024-01-30T09:40:53;18.30;;;16.27;;
48205;SDS011;33995;48.202;16.260;2024-01-30T09:43:26;20.80;;;15.63;;
48205;SDS011;33995;48.202;16.260;2024-01-30T09:46:01;19.00;;;15.77;;
48205;SDS011;33995;48.202;16.260;2024-01-30T09:48:30;19.20;;;16.07;;
48205;SDS011;33995;48.202;16.260;2024-01-30T09:50:58;18.30;;;15.50;;
48205;SDS011;33995;48.202;16.260;2024-01-30T09:53:25;20.00;;;15.23;;
48205;SDS011;33995;48.202;16.260;2024-01-30T09:55:54;19.03;;;15.70;;
48205;SDS011;33995;48.202;16.260;2024-01-30T09:58:22;17.60;;;15.67;;
48205;SDS011;33995;48.202;16.260;2024-01-30T10:00:49;17.27;;;14.83;;
48205;SDS011;33995;48.202;16.260;2024-01-30T10:03:19;17.23;;;15.13;;
48205;SDS011;33995;48.202;16.260;2024-01-30T10:05:50;18.97;;;15.10;;
48205;SDS011;33995;48.202;16.260;2024-01-30T10:08:25;20.13;;;15.00;;
48205;SDS011;33995;48.202;16.260;2024-01-30T10:10:53;19.20;;;14.87;;
48205;SDS011;33995;48.202;16.260;2024-01-30T10:13:20;17.53;;;14.10;;
48205;SDS011;33995;48.202;16.260;2024-01-30T10:15:50;18.00;;;14.30;;
48205;SDS011;33995;48.202;16.260;2024-01-30T10:18:19;18.50;;;14.67;;
48205;SDS011;33995;48.202;16.260;2024-01-30T10:20:46;17.27;;;14.23;;
48205;SDS011;33995;48.202;16.260;2024-01-30T10:23:16;18.37;;;14.50;;
48205;SDS011;33995;48.202;16.260;2024-01-30T10:25:44;16.47;;;14.00;;
48205;SDS011;33995;48.202;16.260;2024-01-30T10:28:12;17.50;;;13.77;;
48205;SDS011;33995;48.202;16.260;2024-01-30T10:30:41;14.47;;;12.63;;
48205;SDS011;33995;48.202;16.260;2024-01-30T10:33:07;16.37;;;13.53;;
48205;SDS011;33995;48.202;16.260;2024-01-30T10:35:36;16.10;;;12.70;;
48205;SDS011;33995;48.202;16.260;2024-01-30T10:38:04;14.27;;;12.77;;
48205;SDS011;33995;48.202;16.260;2024-01-30T10:40:34;14.57;;;12.80;;
48205;SDS011;33995;48.202;16.260;2024-01-30T10:43:04;16.87;;;13.17;;
48205;SDS011;33995;48.202;16.260;2024-01-30T10:45:33;15.30;;;12.80;;
48205;SDS011;33995;48.202;16.260;2024-01-30T10:48:05;15.67;;;12.50;;
48205;SDS011;33995;48.202;16.260;2024-01-30T10:50:37;15.57;;;13.63;;
48205;SDS011;33995;48.202;16.260;2024-01-30T10:53:19;14.00;;;12.47;;
48205;SDS011;33995;48.202;16.260;2024-01-30T10:55:46;13.93;;;12.47;;
48205;SDS011;33995;48.202;16.260;2024-01-30T10:58:15;14.50;;;12.60;;
48205;SDS011;33995;48.202;16.260;2024-01-30T11:00:42;13.60;;;12.17;;
48205;SDS011;33995;48.202;16.260;2024-01-30T11:03:10;14.70;;;12.83;;
48205;SDS011;33995;48.202;16.260;2024-01-30T11:05:40;14.63;;;13.13;;
48205;SDS011;33995;48.202;16.260;2024-01-30T11:08:13;13.90;;;12.40;;
48205;SDS011;33995;48.202;16.260;2024-01-30T11:10:44;14.00;;;12.10;;
48205;SDS011;33995;48.202;16.260;2024-01-30T11:13:15;15.50;;;12.57;;
48205;SDS011;33995;48.202;16.260;2024-01-30T11:15:42;14.37;;;12.87;;
48205;SDS011;33995;48.202;16.260;2024-01-30T11:18:26;13.13;;;11.83;;
48205;SDS011;33995;48.202;16.260;2024-01-30T11:20:58;15.47;;;12.30;;
48205;SDS011;33995;48.202;16.260;2024-01-30T11:23:28;14.40;;;12.43;;
48205;SDS011;33995;48.202;16.260;2024-01-30T11:26:02;13.70;;;12.40;;
48205;SDS011;33995;48.202;16.260;2024-01-30T11:28:33;13.60;;;12.20;;
48205;SDS011;33995;48.202;16.260;2024-01-30T11:31:04;13.47;;;12.07;;
48205;SDS011;33995;48.202;16.260;2024-01-30T11:33:33;13.10;;;11.70;;
48205;SDS011;33995;48.202;16.260;2024-01-30T11:36:01;12.97;;;11.67;;
48205;SDS011;33995;48.202;16.260;2024-01-30T11:38:33;13.27;;;11.87;;
48205;SDS011;33995;48.202;16.260;2024-01-30T11:41:04;13.13;;;11.80;;
48205;SDS011;33995;48.202;16.260;2024-01-30T11:43:31;12.93;;;11.53;;
48205;SDS011;33995;48.202;16.260;2024-01-30T11:46:02;12.57;;;11.27;;
48205;SDS011;33995;48.202;16.260;2024-01-30T11:48:30;12.73;;;11.10;;
48205;SDS011;33995;48.202;16.260;2024-01-30T11:50:58;12.60;;;11.40;;
48205;SDS011;33995;48.202;16.260;2024-01-30T11:53:25;12.63;;;11.30;;
48205;SDS011;33995;48.202;16.260;2024-01-30T11:55:53;12.67;;;11.47;;
48205;SDS011;33995;48.202;16.260;2024-01-30T11:58:20;12.80;;;11.37;;
48205;SDS011;33995;48.202;16.260;2024-01-30T12:00:52;12.60;;;11.33;;
48205;SDS011;33995;48.202;16.260;2024-01-30T12:03:22;13.00;;;11.70;;
48205;SDS011;33995;48.202;16.260;2024-01-30T12:05:58;12.00;;;10.77;;
48205;SDS011;33995;48.202;16.260;2024-01-30T12:08:26;12.30;;;11.20;;
48205;SDS011;33995;48.202;16.260;2024-01-30T12:10:58;13.63;;;12.20;;
48205;SDS011;33995;48.202;16.260;2024-01-30T12:13:25;12.80;;;11.60;;
48205;SDS011;33995;48.202;16.260;2024-01-30T12:15:58;12.43;;;11.23;;
48205;SDS011;33995;48.202;16.260;2024-01-30T12:18:27;12.57;;;11.37;;
48205;SDS011;33995;48.202;16.260;2024-01-30T12:21:03;12.43;;;11.13;;
48205;SDS011;33995;48.202;16.260;2024-01-30T12:23:31;12.70;;;10.87;;
48205;SDS011;33995;48.202;16.260;2024-01-30T12:25:58;12.30;;;11.13;;
48205;SDS011;33995;48.202;16.260;2024-01-30T12:28:26;12.00;;;10.90;;
48205;SDS011;33995;48.202;16.260;2024-01-30T12:30:56;12.83;;;11.53;;
48205;SDS011;33995;48.202;16.260;2024-01-30T12:33:31;12.83;;;11.63;;
48205;SDS011;33995;48.202;16.260;2024-01-30T12:36:01;12.33;;;11.20;;
48205;SDS011;33995;48.202;16.260;2024-01-30T12:38:32;11.97;;;10.87;;
48205;SDS011;33995;48.202;16.260;2024-01-30T12:41:00;12.53;;;11.33;;
48205;SDS011;33995;48.202;16.260;2024-01-30T12:43:27;13.13;;;11.83;;
48205;SDS011;33995;48.202;16.260;2024-01-30T12:46:04;12.57;;;11.37;;
48205;SDS011;33995;48.202;16.260;2024-01-30T12:48:32;13.17;;;11.87;;
48205;SDS011;33995;48.202;16.260;2024-01-30T12:51:00;12.93;;;11.60;;
48205;SDS011;33995;48.202;16.260;2024-01-30T12:53:30;13.23;;;11.97;;
48205;SDS011;33995;48.202;16.260;2024-01-30T12:55:57;12.80;;;11.60;;
48205;SDS011;33995;48.202;16.260;2024-01-30T12:58:24;12.63;;;11.43;;
48205;SDS011;33995;48.202;16.260;2024-01-30T13:00:54;12.40;;;11.23;;
48205;SDS011;33995;48.202;16.260;2024-01-30T13:03:22;12.73;;;11.43;;
48205;SDS011;33995;48.202;16.260;2024-01-30T13:05:49;13.33;;;12.03;;
48205;SDS011;33995;48.202;16.260;2024-01-30T13:08:19;12.70;;;11.50;;
48205;SDS011;33995;48.202;16.260;2024-01-30T13:10:46;13.00;;;11.90;;
48205;SDS011;33995;48.202;16.260;2024-01-30T13:13:15;12.77;;;11.57;;
48205;SDS011;33995;48.202;16.260;2024-01-30T13:15:47;12.70;;;11.40;;
48205;SDS011;33995;48.202;16.260;2024-01-30T13:18:17;12.73;;;11.50;;
48205;SDS011;33995;48.202;16.260;2024-01-30T13:20:44;13.17;;;11.97;;
48205;SDS011;33995;48.202;16.260;2024-01-30T13:23:12;12.33;;;11.13;;
48205;SDS011;33995;48.202;16.260;2024-01-30T13:25:39;12.23;;;11.03;;
48205;SDS011;33995;48.202;16.260;2024-01-30T13:28:09;13.20;;;12.00;;
48205;SDS011;33995;48.202;16.260;2024-01-30T13:30:36;13.17;;;11.73;;
48205;SDS011;33995;48.202;16.260;2024-01-30T13:33:06;13.20;;;12.00;;
48205;SDS011;33995;48.202;16.260;2024-01-30T13:35:33;12.77;;;11.57;;
48205;SDS011;33995;48.202;16.260;2024-01-30T13:38:01;12.87;;;11.63;;
48205;SDS011;33995;48.202;16.260;2024-01-30T13:40:28;12.23;;;10.93;;
48205;SDS011;33995;48.202;16.260;2024-01-30T13:42:55;12.70;;;11.10;;
48205;SDS011;33995;48.202;16.260;2024-01-30T13:45:24;13.13;;;11.77;;
48205;SDS011;33995;48.202;16.260;2024-01-30T13:47:51;12.37;;;11.17;;
48205;SDS011;33995;48.202;16.260;2024-01-30T13:50:22;12.57;;;11.27;;
48205;SDS011;33995;48.202;16.260;2024-01-30T13:52:49;12.63;;;11.43;;
48205;SDS011;33995;48.202;16.260;2024-01-30T13:55:16;12.53;;;11.23;;
48205;SDS011;33995;48.202;16.260;2024-01-30T13:57:43;12.60;;;11.37;;
48205;SDS011;33995;48.202;16.260;2024-01-30T14:00:12;13.53;;;11.73;;
48205;SDS011;33995;48.202;16.260;2024-01-30T14:02:45;12.60;;;11.30;;
48205;SDS011;33995;48.202;16.260;2024-01-30T14:05:13;13.90;;;12.50;;
48205;SDS011;33995;48.202;16.260;2024-01-30T14:07:41;13.07;;;11.77;;
48205;SDS011;33995;48.202;16.260;2024-01-30T14:10:15;12.40;;;11.03;;
48205;SDS011;33995;48.202;16.260;2024-01-30T14:12:42;14.00;;;11.73;;
48205;SDS011;33995;48.202;16.260;2024-01-30T14:15:14;12.73;;;11.40;;
48205;SDS011;33995;48.202;16.260;2024-01-30T14:17:54;12.83;;;11.50;;